Mayfield Heights, Ohio
Current Conditions -  °F | °C
As of 10:45 AM on Friday 19 Dec 2014 (Local Time) from KCGF Reporting Station
Overcast Overcast  
Wind Chill: 24°   Ceiling: 1500
Heat Index: 32°   Visibility: 10mi
Dew Point: 25°   Wind: 9mph
Humidity: 75%   Direction: 330°NNW
Pressure: 30.24"   Gusts: NA
Location:  41.5545°N, 81.4746°W
Report Text: KCGF 191545Z 33008KT 10SM BKN015 OVC025 00/M04 A3024
Loading
Personal Weather Stations






























Interactive Weather Map New forecast layout! Learn more

10-Day Weather Forecast

Advertisements
Track Severe Weather on mobile